Time;durP1;ratioP1;P1;durP2;ratioP2;P2;SDS_P1;SDS_P2;PMS_P1;PMS_P2;Temp;Humidity;BMP_temperature;BMP_pressure;BME280_temperature;BME280_humidity;BME280_pressure;Samples;Min_cycle;Max_cycle;Signal;HPM_P1;HPM_P2
2022/04/30 00:01:18;;;;;;;19.42;13.85;;;;;;;;;;5081918;28;20051;-65
2022/04/30 00:03:44;;;;;;;18.83;13.27;;;;;;;;;;5070615;28;20035;-69
2022/04/30 00:06:09;;;;;;;18.17;13.35;;;;;;;;;;5080880;28;20048;-70
2022/04/30 00:08:35;;;;;;;15.65;12.50;;;;;;;;;;5077754;28;20035;-66
2022/04/30 00:11:00;;;;;;;16.38;12.10;;;;;;;;;;5074363;28;20082;-64
2022/04/30 00:13:25;;;;;;;13.25;9.85;;;;;;;;;;5080198;28;20420;-65
2022/04/30 00:15:51;;;;;;;13.35;10.32;;;;;;;;;;5081063;28;20024;-65
2022/04/30 00:18:16;;;;;;;15.45;11.32;;;;;;;;;;5073895;28;20032;-66
2022/04/30 00:20:48;;;;;;;18.33;12.55;;;;;;;;;;5076756;28;20450;-64
2022/04/30 00:23:20;;;;;;;19.58;12.73;;;;;;;;;;5076389;28;20106;-68
2022/04/30 00:25:48;;;;;;;20.20;13.02;;;;;;;;;;5073890;28;20034;-70
2022/04/30 00:28:14;;;;;;;19.85;13.63;;;;;;;;;;5080475;28;20381;-65
2022/04/30 00:30:39;;;;;;;20.00;14.50;;;;;;;;;;5079811;28;20126;-65
2022/04/30 00:33:09;;;;;;;19.95;13.90;;;;;;;;;;5080533;28;20054;-64
2022/04/30 00:35:34;;;;;;;19.23;13.88;;;;;;;;;;5081049;28;20016;-65
2022/04/30 00:37:59;;;;;;;17.42;11.07;;;;;;;;;;5080353;28;20055;-69
2022/04/30 00:40:24;;;;;;;12.68;8.35;;;;;;;;;;5053876;28;20036;-72
2022/04/30 00:42:50;;;;;;;12.05;8.10;;;;;;;;;;5078330;28;20043;-68
2022/04/30 00:45:15;;;;;;;19.60;12.30;;;;;;;;;;5080158;28;20067;-66
2022/04/30 00:47:40;;;;;;;13.50;9.07;;;;;;;;;;5080463;28;20390;-65
2022/04/30 00:50:06;;;;;;;12.70;8.10;;;;;;;;;;5080304;28;20125;-69
2022/04/30 00:52:32;;;;;;;12.63;8.15;;;;;;;;;;5079263;28;20078;-67
2022/04/30 00:55:02;;;;;;;15.50;9.93;;;;;;;;;;5079780;28;20028;-66
2022/04/30 00:57:27;;;;;;;;;;;;;;;;;;5080254;28;20039;-66
2022/04/30 00:59:58;;;;;;;16.20;10.83;;;;;;;;;;5077222;28;19912;-65
2022/04/30 01:02:27;;;;;;;15.15;9.25;;;;;;;;;;5065741;28;20446;-66
2022/04/30 01:04:53;;;;;;;13.52;9.10;;;;;;;;;;5074766;28;20023;-70
2022/04/30 01:07:19;;;;;;;17.45;12.05;;;;;;;;;;5079465;28;20048;-66
2022/04/30 01:09:46;;;;;;;23.25;13.95;;;;;;;;;;5080312;28;20038;-64
2022/04/30 01:12:13;;;;;;;26.20;15.15;;;;;;;;;;5076966;28;20032;-64
2022/04/30 01:14:39;;;;;;;25.48;16.38;;;;;;;;;;5063652;28;20927;-65
2022/04/30 01:17:05;;;;;;;24.92;15.27;;;;;;;;;;5067657;28;20574;-63
2022/04/30 01:19:36;;;;;;;21.67;15.32;;;;;;;;;;5079974;28;20103;-64
2022/04/30 01:22:08;;;;;;;17.40;12.20;;;;;;;;;;5080024;28;20046;-65
2022/04/30 01:24:34;;;;;;;14.95;10.07;;;;;;;;;;5069349;28;20028;-65
2022/04/30 01:27:00;;;;;;;21.48;13.75;;;;;;;;;;5080015;28;20038;-68
2022/04/30 01:29:27;;;;;;;29.92;16.38;;;;;;;;;;5069540;28;20028;-65
2022/04/30 01:37:25;;;;;;;16.73;12.35;;;;;;;;;;5079715;28;20131;-65
2022/04/30 01:39:56;;;;;;;19.88;13.50;;;;;;;;;;5062140;28;20031;-64
2022/04/30 01:42:22;;;;;;;17.10;12.88;;;;;;;;;;5079453;28;20038;-69
2022/04/30 01:44:48;;;;;;;20.23;13.52;;;;;;;;;;5073253;28;20024;-68
2022/04/30 01:47:14;;;;;;;19.50;14.30;;;;;;;;;;5083957;28;20040;-65
2022/04/30 01:49:40;;;;;;;23.55;16.10;;;;;;;;;;5082938;28;20051;-69
2022/04/30 01:52:08;;;;;;;21.83;14.57;;;;;;;;;;5083646;28;20059;-64
2022/04/30 01:54:34;;;;;;;20.70;15.00;;;;;;;;;;5083305;28;20024;-65
2022/04/30 01:56:59;;;;;;;21.73;13.98;;;;;;;;;;5082998;28;20070;-66
2022/04/30 01:59:25;;;;;;;19.95;11.98;;;;;;;;;;5083605;28;20032;-67
2022/04/30 02:01:50;;;;;;;15.27;9.07;;;;;;;;;;5083220;28;20062;-66
2022/04/30 02:04:16;;;;;;;11.43;8.38;;;;;;;;;;5073867;28;20024;-64
2022/04/30 02:06:41;;;;;;;9.65;7.82;;;;;;;;;;5081166;28;20055;-67
2022/04/30 02:09:07;;;;;;;13.45;8.25;;;;;;;;;;5080938;28;20024;-68
2022/04/30 02:11:32;;;;;;;19.33;11.48;;;;;;;;;;5082601;28;20028;-67
2022/04/30 02:13:58;;;;;;;14.75;9.27;;;;;;;;;;5073043;28;20081;-72
2022/04/30 02:16:24;;;;;;;9.70;7.32;;;;;;;;;;5052834;28;20028;-65
2022/04/30 02:18:50;;;;;;;8.52;7.43;;;;;;;;;;5068820;28;20038;-65
2022/04/30 02:21:17;;;;;;;10.68;7.13;;;;;;;;;;5074486;28;20093;-70
2022/04/30 02:23:43;;;;;;;9.27;8.10;;;;;;;;;;5062919;28;20016;-66
2022/04/30 02:26:09;;;;;;;9.85;7.82;;;;;;;;;;5082314;28;20027;-66
2022/04/30 02:28:36;;;;;;;13.05;9.13;;;;;;;;;;5082885;28;20020;-64
2022/04/30 02:31:01;;;;;;;16.13;9.60;;;;;;;;;;5082643;28;20023;-65
2022/04/30 02:33:27;;;;;;;13.05;9.73;;;;;;;;;;5082733;28;20085;-69
2022/04/30 02:35:52;;;;;;;15.80;9.88;;;;;;;;;;5082868;28;20039;-64
2022/04/30 02:38:19;;;;;;;16.00;10.40;;;;;;;;;;5083053;28;20032;-69
2022/04/30 02:40:45;;;;;;;15.00;10.52;;;;;;;;;;5083057;28;20486;-71
2022/04/30 02:43:11;;;;;;;16.63;10.82;;;;;;;;;;5080770;28;20034;-65
2022/04/30 02:45:37;;;;;;;17.27;11.43;;;;;;;;;;5083049;28;20056;-69
2022/04/30 02:48:03;;;;;;;13.93;10.25;;;;;;;;;;5082805;28;20066;-68
2022/04/30 02:50:29;;;;;;;14.15;9.73;;;;;;;;;;5082514;28;20015;-66
2022/04/30 02:52:55;;;;;;;11.93;9.38;;;;;;;;;;5082316;28;20032;-65
2022/04/30 02:55:21;;;;;;;10.43;7.68;;;;;;;;;;5082127;28;20035;-65
2022/04/30 03:00:35;;;;;;;10.50;8.13;;;;;;;;;;5084286;28;20410;-67
2022/04/30 03:03:00;;;;;;;10.85;8.20;;;;;;;;;;5082054;28;20419;-64
2022/04/30 03:05:26;;;;;;;13.38;7.80;;;;;;;;;;5083322;28;20012;-69
2022/04/30 03:07:53;;;;;;;10.55;8.10;;;;;;;;;;5081824;28;20410;-68
2022/04/30 03:10:21;;;;;;;13.00;8.85;;;;;;;;;;5082663;28;20115;-64
2022/04/30 03:12:48;;;;;;;15.80;9.90;;;;;;;;;;5081420;28;20039;-65
2022/04/30 03:15:14;;;;;;;14.90;10.45;;;;;;;;;;5081766;28;20123;-66
2022/04/30 03:23:07;;;;;;;10.68;8.18;;;;;;;;;;5081321;28;20023;-70
2022/04/30 03:25:32;;;;;;;11.23;8.38;;;;;;;;;;5081367;28;20016;-66
2022/04/30 03:27:57;;;;;;;9.15;7.30;;;;;;;;;;5082103;28;20153;-70
2022/04/30 03:30:23;;;;;;;9.23;7.43;;;;;;;;;;5081657;28;20050;-67
2022/04/30 03:32:48;;;;;;;7.80;6.90;;;;;;;;;;5080840;28;20081;-66
2022/04/30 03:35:14;;;;;;;8.38;6.97;;;;;;;;;;5082014;28;20028;-66
2022/04/30 03:37:39;;;;;;;8.13;6.45;;;;;;;;;;5081700;28;20039;-64
2022/04/30 03:40:05;;;;;;;8.38;7.03;;;;;;;;;;5081361;28;20024;-65
2022/04/30 03:42:30;;;;;;;10.85;7.28;;;;;;;;;;5081605;28;20024;-64
2022/04/30 03:44:56;;;;;;;11.85;8.43;;;;;;;;;;5081101;28;20132;-69
2022/04/30 03:47:21;;;;;;;14.70;11.48;;;;;;;;;;5080476;28;20043;-64
2022/04/30 03:49:47;;;;;;;13.82;9.98;;;;;;;;;;5081242;28;20343;-70
2022/04/30 03:52:12;;;;;;;19.98;13.30;;;;;;;;;;5081548;28;20424;-66
2022/04/30 03:54:39;;;;;;;15.52;10.23;;;;;;;;;;5080481;28;20043;-72
2022/04/30 03:57:04;;;;;;;13.90;10.02;;;;;;;;;;5071334;28;20036;-66
2022/04/30 03:59:29;;;;;;;11.23;9.65;;;;;;;;;;5062045;28;20024;-65
2022/04/30 04:01:55;;;;;;;12.73;9.88;;;;;;;;;;5080817;28;20031;-69
2022/04/30 04:04:20;;;;;;;14.88;10.07;;;;;;;;;;5081565;28;20024;-65
2022/04/30 04:06:47;;;;;;;13.98;10.73;;;;;;;;;;5080196;28;20056;-65
2022/04/30 04:09:12;;;;;;;12.65;10.20;;;;;;;;;;5081039;28;20027;-65
2022/04/30 04:11:37;;;;;;;16.67;12.02;;;;;;;;;;5080635;28;20036;-65
2022/04/30 04:19:32;;;;;;;14.00;10.75;;;;;;;;;;5081086;28;20370;-66
2022/04/30 04:21:57;;;;;;;14.30;10.63;;;;;;;;;;5080166;28;20028;-64
2022/04/30 04:27:06;;;;;;;11.43;8.68;;;;;;;;;;5075843;28;20039;-65
2022/04/30 04:29:32;;;;;;;7.93;7.10;;;;;;;;;;5055756;28;20033;-66
2022/04/30 04:31:57;;;;;;;9.02;7.35;;;;;;;;;;5080061;28;20034;-65
2022/04/30 04:34:22;;;;;;;10.90;6.70;;;;;;;;;;5080648;28;20035;-65
2022/04/30 04:36:48;;;;;;;10.23;6.65;;;;;;;;;;5080850;28;20518;-65
2022/04/30 04:39:14;;;;;;;10.77;6.47;;;;;;;;;;5080415;28;20483;-67
2022/04/30 04:41:40;;;;;;;8.57;6.55;;;;;;;;;;5081166;28;20027;-67
2022/04/30 04:44:05;;;;;;;8.15;6.40;;;;;;;;;;5079091;28;20144;-65
2022/04/30 04:46:31;;;;;;;7.85;6.88;;;;;;;;;;5080069;28;20134;-69
2022/04/30 04:48:57;;;;;;;13.88;7.03;;;;;;;;;;5080630;28;20085;-63
2022/04/30 04:51:22;;;;;;;9.77;7.78;;;;;;;;;;5080019;28;20012;-65
2022/04/30 04:53:47;;;;;;;14.43;8.40;;;;;;;;;;5080283;28;20059;-64
2022/04/30 04:56:13;;;;;;;10.32;7.43;;;;;;;;;;5080386;28;20534;-67
2022/04/30 04:58:40;;;;;;;10.65;7.65;;;;;;;;;;5080015;28;20027;-64
2022/04/30 05:01:05;;;;;;;11.23;7.43;;;;;;;;;;5079519;28;20035;-65
2022/04/30 05:03:30;;;;;;;10.30;7.85;;;;;;;;;;5079938;28;20028;-65
2022/04/30 05:05:56;;;;;;;20.48;8.35;;;;;;;;;;5079755;28;20131;-65
2022/04/30 05:08:21;;;;;;;11.73;7.80;;;;;;;;;;5080511;28;20043;-66
2022/04/30 05:10:46;;;;;;;12.65;7.95;;;;;;;;;;5078463;28;20028;-65
2022/04/30 05:13:12;;;;;;;13.80;9.68;;;;;;;;;;5079923;28;20332;-66
2022/04/30 05:15:37;;;;;;;17.63;11.38;;;;;;;;;;5079751;28;20443;-66
2022/04/30 05:18:03;;;;;;;22.48;13.15;;;;;;;;;;5075376;28;20038;-71
2022/04/30 05:20:28;;;;;;;19.70;12.40;;;;;;;;;;5068096;28;20043;-64
2022/04/30 05:22:53;;;;;;;20.60;11.82;;;;;;;;;;5080040;28;20107;-70
2022/04/30 05:25:19;;;;;;;17.73;11.02;;;;;;;;;;5080525;28;20052;-66
2022/04/30 05:27:44;;;;;;;25.75;14.98;;;;;;;;;;5079341;28;20034;-65
2022/04/30 05:30:10;;;;;;;22.33;15.00;;;;;;;;;;5080350;28;20041;-71
2022/04/30 05:32:35;;;;;;;28.15;15.27;;;;;;;;;;5079093;28;20043;-65
2022/04/30 05:35:01;;;;;;;22.20;13.13;;;;;;;;;;5069260;28;20366;-70
2022/04/30 05:37:26;;;;;;;86.72;36.03;;;;;;;;;;5065239;28;20074;-66
2022/04/30 05:39:51;;;;;;;42.05;20.50;;;;;;;;;;5068905;28;20027;-65
2022/04/30 05:42:16;;;;;;;20.88;12.85;;;;;;;;;;5072933;28;20089;-71
2022/04/30 05:44:42;;;;;;;20.17;13.52;;;;;;;;;;5065930;28;20028;-69
2022/04/30 05:47:07;;;;;;;18.85;13.57;;;;;;;;;;5065538;28;20028;-65
2022/04/30 05:49:33;;;;;;;18.98;13.27;;;;;;;;;;5065859;28;20069;-68
2022/04/30 05:51:59;;;;;;;17.60;12.30;;;;;;;;;;5047498;28;20032;-66
2022/04/30 05:54:24;;;;;;;21.38;14.48;;;;;;;;;;5066344;28;20032;-70
2022/04/30 05:56:50;;;;;;;21.90;14.48;;;;;;;;;;5066065;28;20152;-68
2022/04/30 05:59:15;;;;;;;20.00;12.50;;;;;;;;;;5066567;28;20095;-70
2022/04/30 06:01:40;;;;;;;15.13;12.27;;;;;;;;;;5065567;28;20043;-69
2022/04/30 06:04:06;;;;;;;19.25;12.57;;;;;;;;;;5077697;28;20024;-73
2022/04/30 06:06:31;;;;;;;45.55;23.55;;;;;;;;;;5068440;28;20054;-69
2022/04/30 06:08:56;;;;;;;21.85;12.40;;;;;;;;;;5079867;28;20308;-66
2022/04/30 06:11:22;;;;;;;14.43;10.82;;;;;;;;;;5075502;28;20447;-74
2022/04/30 06:13:47;;;;;;;19.77;13.70;;;;;;;;;;5073022;28;20443;-69
2022/04/30 06:16:12;;;;;;;17.23;12.95;;;;;;;;;;5080763;28;20161;-67
2022/04/30 06:18:38;;;;;;;23.85;14.15;;;;;;;;;;5080857;28;20601;-67
2022/04/30 06:21:03;;;;;;;20.20;12.05;;;;;;;;;;5079866;28;20078;-67
2022/04/30 06:23:28;;;;;;;19.42;12.90;;;;;;;;;;5081033;28;20047;-68
2022/04/30 06:25:54;;;;;;;19.52;13.77;;;;;;;;;;5080167;28;20482;-70
2022/04/30 06:28:20;;;;;;;22.15;13.98;;;;;;;;;;5071795;28;20498;-66
2022/04/30 06:30:45;;;;;;;19.38;13.20;;;;;;;;;;5077256;28;20055;-71
2022/04/30 06:33:11;;;;;;;18.77;13.50;;;;;;;;;;5069364;28;20146;-67
2022/04/30 06:35:39;;;;;;;34.55;21.63;;;;;;;;;;5071120;28;20034;-68
2022/04/30 06:38:06;;;;;;;27.52;20.25;;;;;;;;;;5072353;28;20043;-68
2022/04/30 06:40:31;;;;;;;23.10;16.23;;;;;;;;;;5076643;28;20020;-68
2022/04/30 06:42:57;;;;;;;25.75;17.20;;;;;;;;;;5075458;28;20546;-72
2022/04/30 06:45:22;;;;;;;24.20;17.63;;;;;;;;;;5074589;28;20414;-70
2022/04/30 06:47:48;;;;;;;28.92;19.42;;;;;;;;;;5063670;28;20059;-66
2022/04/30 06:50:13;;;;;;;31.67;22.27;;;;;;;;;;5082714;28;20034;-68
2022/04/30 06:58:06;;;;;;;20.35;14.52;;;;;;;;;;5070911;28;20367;-71
2022/04/30 07:03:15;;;;;;;25.05;19.92;;;;;;;;;;5083600;28;20038;-68
2022/04/30 07:05:41;;;;;;;18.45;14.48;;;;;;;;;;5083425;28;20028;-73
2022/04/30 07:08:06;;;;;;;31.50;20.65;;;;;;;;;;5083423;28;20369;-69
2022/04/30 07:10:32;;;;;;;21.55;13.98;;;;;;;;;;5083479;28;20032;-69
2022/04/30 07:12:57;;;;;;;19.58;13.77;;;;;;;;;;5083262;28;20024;-67
2022/04/30 07:15:22;;;;;;;18.08;13.15;;;;;;;;;;5082568;28;20035;-69
2022/04/30 07:17:48;;;;;;;20.33;14.45;;;;;;;;;;5082110;28;20086;-68
2022/04/30 07:20:13;;;;;;;20.70;14.25;;;;;;;;;;5081404;28;20400;-68
2022/04/30 07:22:38;;;;;;;20.65;14.27;;;;;;;;;;5082934;28;20020;-76
2022/04/30 07:25:05;;;;;;;21.67;16.13;;;;;;;;;;5083607;28;20066;-80
2022/04/30 07:27:30;;;;;;;20.75;12.80;;;;;;;;;;5082387;28;20032;-70
2022/04/30 07:29:55;;;;;;;13.70;11.18;;;;;;;;;;5082952;28;20024;-71
2022/04/30 07:32:21;;;;;;;12.02;10.38;;;;;;;;;;5083963;28;20030;-67
2022/04/30 07:34:46;;;;;;;12.90;10.40;;;;;;;;;;5083411;28;20039;-69
2022/04/30 07:37:12;;;;;;;13.50;10.30;;;;;;;;;;5083749;28;20146;-69
2022/04/30 07:39:37;;;;;;;15.07;11.48;;;;;;;;;;5082299;28;20016;-69
2022/04/30 07:42:03;;;;;;;14.57;10.20;;;;;;;;;;5082432;28;20124;-73
2022/04/30 07:44:30;;;;;;;14.80;10.88;;;;;;;;;;5083734;28;20884;-69
2022/04/30 07:46:55;;;;;;;9.70;8.23;;;;;;;;;;5083023;28;20057;-75
2022/04/30 07:49:20;;;;;;;10.65;8.57;;;;;;;;;;5082175;28;20028;-68
2022/04/30 07:52:07;;;;;;;11.23;9.43;;;;;;;;;;5083591;28;20054;-70
2022/04/30 07:54:31;;;;;;;10.55;9.23;;;;;;;;;;5083152;28;20040;-68
2022/04/30 07:56:58;;;;;;;10.07;8.35;;;;;;;;;;5083052;28;20412;-75
2022/04/30 07:59:24;;;;;;;10.55;8.77;;;;;;;;;;5082907;28;20088;-68
2022/04/30 08:01:49;;;;;;;10.73;8.75;;;;;;;;;;5082157;28;20027;-68
2022/04/30 08:04:15;;;;;;;11.32;7.63;;;;;;;;;;5083115;28;20100;-67
2022/04/30 08:06:40;;;;;;;10.70;8.98;;;;;;;;;;5082987;28;20135;-75
2022/04/30 08:09:06;;;;;;;9.48;8.20;;;;;;;;;;5083224;28;20423;-70
2022/04/30 08:11:31;;;;;;;9.15;7.85;;;;;;;;;;5084082;28;20024;-69
2022/04/30 08:13:57;;;;;;;9.45;8.35;;;;;;;;;;5083036;28;20063;-73
2022/04/30 08:16:22;;;;;;;9.18;7.90;;;;;;;;;;5082080;28;20331;-74
2022/04/30 08:18:48;;;;;;;10.65;7.70;;;;;;;;;;5083780;28;20020;-68
2022/04/30 08:21:13;;;;;;;9.00;7.35;;;;;;;;;;5082799;28;20016;-69
2022/04/30 08:23:38;;;;;;;7.65;6.55;;;;;;;;;;5083344;28;20028;-69
2022/04/30 08:26:03;;;;;;;8.73;6.35;;;;;;;;;;5084016;28;20020;-69
2022/04/30 08:28:29;;;;;;;9.15;6.78;;;;;;;;;;5082458;28;20035;-69
2022/04/30 08:30:56;;;;;;;8.70;6.68;;;;;;;;;;5083193;28;20032;-73
2022/04/30 08:33:21;;;;;;;7.85;6.43;;;;;;;;;;5065010;28;20027;-70
2022/04/30 08:35:48;;;;;;;7.03;6.32;;;;;;;;;;5082860;28;20019;-73
2022/04/30 08:38:15;;;;;;;8.43;7.55;;;;;;;;;;5083366;28;20031;-76
2022/04/30 08:40:43;;;;;;;9.73;7.25;;;;;;;;;;5083365;28;20056;-71
2022/04/30 08:43:10;;;;;;;10.55;7.57;;;;;;;;;;5082539;28;20020;-74
2022/04/30 08:45:39;;;;;;;7.63;6.70;;;;;;;;;;5081876;28;20024;-70
2022/04/30 08:48:07;;;;;;;7.55;6.80;;;;;;;;;;5082020;28;20395;-69
2022/04/30 08:50:33;;;;;;;7.43;6.50;;;;;;;;;;5082855;28;20032;-72
2022/04/30 08:52:58;;;;;;;8.30;6.50;;;;;;;;;;5082272;28;20054;-69
2022/04/30 08:55:23;;;;;;;7.07;6.18;;;;;;;;;;5082930;28;20127;-71
2022/04/30 08:57:49;;;;;;;7.63;6.82;;;;;;;;;;5082208;28;20100;-70
2022/04/30 09:00:14;;;;;;;7.97;6.18;;;;;;;;;;5082643;28;20115;-70
2022/04/30 09:02:50;;;;;;;10.32;5.85;;;;;;;;;;5083040;28;20028;-71
2022/04/30 09:05:16;;;;;;;8.00;6.38;;;;;;;;;;5082416;28;20059;-72
2022/04/30 09:07:41;;;;;;;9.40;6.45;;;;;;;;;;5064048;28;20083;-71
2022/04/30 09:10:07;;;;;;;7.65;6.40;;;;;;;;;;5082654;28;20024;-70
2022/04/30 09:12:33;;;;;;;9.23;5.65;;;;;;;;;;5082472;28;20078;-69
2022/04/30 09:14:59;;;;;;;6.85;5.53;;;;;;;;;;5082479;28;20138;-70
2022/04/30 09:17:25;;;;;;;7.47;5.93;;;;;;;;;;5082930;28;20039;-75
2022/04/30 09:19:54;;;;;;;6.15;5.55;;;;;;;;;;5082800;28;20060;-70
2022/04/30 09:22:29;;;;;;;6.10;5.40;;;;;;;;;;5082917;28;20032;-71
2022/04/30 09:24:55;;;;;;;6.72;5.75;;;;;;;;;;5081980;28;20020;-71
2022/04/30 09:27:20;;;;;;;7.47;5.35;;;;;;;;;;5082034;28;20046;-78
2022/04/30 09:29:46;;;;;;;5.97;5.38;;;;;;;;;;5081377;28;20055;-72
2022/04/30 09:32:18;;;;;;;5.95;5.07;;;;;;;;;;5081635;28;20028;-69
2022/04/30 09:37:45;;;;;;;5.90;5.30;;;;;;;;;;5082035;28;20085;-70
2022/04/30 09:40:13;;;;;;;7.10;4.82;;;;;;;;;;5081869;28;20112;-69
2022/04/30 09:42:39;;;;;;;8.13;4.50;;;;;;;;;;5080997;28;20028;-71
2022/04/30 09:45:05;;;;;;;6.18;5.22;;;;;;;;;;5081498;28;20324;-71
2022/04/30 09:47:33;;;;;;;6.85;5.55;;;;;;;;;;5081593;28;20027;-69
2022/04/30 09:55:27;;;;;;;4.97;4.47;;;;;;;;;;5081730;28;20038;-70
2022/04/30 09:57:52;;;;;;;7.97;4.95;;;;;;;;;;5081676;28;20032;-70
2022/04/30 10:00:18;;;;;;;5.03;4.15;;;;;;;;;;5081617;28;20071;-72
2022/04/30 10:02:46;;;;;;;5.80;3.70;;;;;;;;;;5080888;28;20427;-69
2022/04/30 10:05:11;;;;;;;3.95;3.65;;;;;;;;;;5085145;28;20035;-71
2022/04/30 10:07:36;;;;;;;4.10;3.33;;;;;;;;;;5086131;28;20048;-72
2022/04/30 10:10:08;;;;;;;7.90;3.53;;;;;;;;;;5086159;28;20008;-70
2022/04/30 10:12:46;;;;;;;5.65;3.10;;;;;;;;;;5086394;28;20028;-70
2022/04/30 10:15:22;;;;;;;3.83;3.25;;;;;;;;;;5085472;28;20024;-72
2022/04/30 10:17:51;;;;;;;3.40;3.10;;;;;;;;;;5085871;28;20491;-74
2022/04/30 10:20:18;;;;;;;;;;;;;;;;;;5086461;28;20027;-72
2022/04/30 10:22:57;;;;;;;3.30;2.88;;;;;;;;;;5084791;28;19966;-75
2022/04/30 10:25:42;;;;;;;3.30;3.00;;;;;;;;;;5067223;28;20028;-75
2022/04/30 10:28:17;;;;;;;3.03;2.83;;;;;;;;;;5084707;28;20036;-72
2022/04/30 10:30:43;;;;;;;5.93;3.20;;;;;;;;;;5085572;28;20108;-76
2022/04/30 10:33:09;;;;;;;3.00;2.70;;;;;;;;;;5084912;28;20066;-71
2022/04/30 10:35:35;;;;;;;2.10;2.00;;;;;;;;;;5085337;28;20067;-70
2022/04/30 10:38:10;;;;;;;2.90;2.60;;;;;;;;;;5083843;28;20442;-71
2022/04/30 10:40:39;;;;;;;3.00;2.80;;;;;;;;;;5084937;28;20243;-71
2022/04/30 10:43:05;;;;;;;;;;;;;;;;;;5084777;28;20031;-71
2022/04/30 10:45:30;;;;;;;2.72;1.92;;;;;;;;;;5084734;28;19912;-70
2022/04/30 10:47:56;;;;;;;3.00;2.53;;;;;;;;;;5085021;28;20114;-72
2022/04/30 10:50:22;;;;;;;3.60;2.35;;;;;;;;;;5084708;28;20036;-71
2022/04/30 10:52:48;;;;;;;2.78;2.10;;;;;;;;;;5083819;28;20036;-71
2022/04/30 10:55:14;;;;;;;3.42;2.40;;;;;;;;;;5085360;28;20028;-73
2022/04/30 10:57:43;;;;;;;2.95;2.40;;;;;;;;;;5083668;28;20636;-74
2022/04/30 11:00:08;;;;;;;2.83;2.55;;;;;;;;;;5085496;28;20043;-79
2022/04/30 11:02:34;;;;;;;3.35;2.05;;;;;;;;;;5085239;28;20024;-73
2022/04/30 11:05:00;;;;;;;3.05;2.75;;;;;;;;;;5084121;28;20324;-72
2022/04/30 11:07:26;;;;;;;3.47;2.50;;;;;;;;;;5084540;28;20082;-73
2022/04/30 11:09:51;;;;;;;2.72;2.33;;;;;;;;;;5084090;28;20040;-71
2022/04/30 11:12:17;;;;;;;2.67;2.20;;;;;;;;;;5083740;28;20418;-71
2022/04/30 11:14:44;;;;;;;2.53;1.80;;;;;;;;;;5084391;28;20484;-70
2022/04/30 11:17:09;;;;;;;3.65;2.10;;;;;;;;;;5066016;28;20362;-74
2022/04/30 11:19:39;;;;;;;4.57;1.80;;;;;;;;;;5084484;28;20047;-72
2022/04/30 11:22:07;;;;;;;2.08;1.85;;;;;;;;;;5084625;28;20072;-77
2022/04/30 11:24:32;;;;;;;2.38;2.17;;;;;;;;;;5084169;28;20458;-74
2022/04/30 11:26:59;;;;;;;5.55;2.30;;;;;;;;;;5084519;28;20427;-70
2022/04/30 11:29:24;;;;;;;3.58;3.28;;;;;;;;;;5084024;28;20032;-70
2022/04/30 11:31:54;;;;;;;3.35;3.05;;;;;;;;;;5085234;28;20423;-74
2022/04/30 11:34:19;;;;;;;2.35;2.15;;;;;;;;;;5085119;28;20024;-70
2022/04/30 11:36:46;;;;;;;3.83;3.08;;;;;;;;;;5084373;28;20612;-76
2022/04/30 11:39:11;;;;;;;4.25;2.60;;;;;;;;;;5083506;28;20038;-70
2022/04/30 11:41:38;;;;;;;7.90;4.70;;;;;;;;;;5083016;28;20028;-71
2022/04/30 11:44:03;;;;;;;4.55;3.15;;;;;;;;;;5084135;28;20438;-70
2022/04/30 11:46:29;;;;;;;12.07;7.95;;;;;;;;;;5084092;28;20024;-70
2022/04/30 11:48:54;;;;;;;5.68;5.15;;;;;;;;;;5083834;28;20102;-70
2022/04/30 11:51:20;;;;;;;5.35;4.05;;;;;;;;;;5084488;28;20081;-77
2022/04/30 11:53:45;;;;;;;6.53;4.00;;;;;;;;;;5083907;28;20019;-69
2022/04/30 11:56:11;;;;;;;3.70;2.33;;;;;;;;;;5083090;28;20028;-71
2022/04/30 11:58:43;;;;;;;4.20;3.05;;;;;;;;;;5084022;28;20020;-71
2022/04/30 12:01:19;;;;;;;2.92;2.20;;;;;;;;;;5083486;28;20024;-70
2022/04/30 12:03:44;;;;;;;2.22;2.03;;;;;;;;;;5083457;28;20047;-71
2022/04/30 12:06:10;;;;;;;2.03;1.90;;;;;;;;;;5083723;28;20736;-71
2022/04/30 12:08:35;;;;;;;2.47;2.20;;;;;;;;;;5083298;28;20447;-70
2022/04/30 12:11:01;;;;;;;3.88;2.30;;;;;;;;;;5083927;28;20106;-70
2022/04/30 12:13:26;;;;;;;9.00;2.50;;;;;;;;;;5082327;28;20067;-71
2022/04/30 12:16:05;;;;;;;2.15;1.95;;;;;;;;;;5083814;28;20118;-74
2022/04/30 12:26:58;;;;;;;2.40;2.20;;;;;;;;;;5083367;28;20502;-70
2022/04/30 12:29:24;;;;;;;1.90;1.80;;;;;;;;;;5083128;28;20046;-73
2022/04/30 12:31:51;;;;;;;1.80;1.70;;;;;;;;;;5082420;28;20177;-71
2022/04/30 12:34:17;;;;;;;1.50;1.40;;;;;;;;;;5083372;28;20031;-76
2022/04/30 12:36:52;;;;;;;3.15;2.13;;;;;;;;;;5082710;28;20027;-72
2022/04/30 12:39:22;;;;;;;2.38;2.13;;;;;;;;;;5082947;28;20040;-75
2022/04/30 12:41:49;;;;;;;2.13;2.00;;;;;;;;;;5081999;28;20115;-71
2022/04/30 12:44:15;;;;;;;1.88;1.77;;;;;;;;;;5082907;28;20024;-76
2022/04/30 12:46:44;;;;;;;3.13;2.40;;;;;;;;;;5083091;28;20035;-72
2022/04/30 12:49:11;;;;;;;2.00;1.85;;;;;;;;;;5082283;28;20545;-71
2022/04/30 12:51:36;;;;;;;8.45;2.10;;;;;;;;;;5083320;28;20036;-71
2022/04/30 12:54:02;;;;;;;2.47;1.73;;;;;;;;;;5082429;28;21027;-72
2022/04/30 12:56:27;;;;;;;2.05;1.85;;;;;;;;;;5064856;28;20028;-73
2022/04/30 12:58:53;;;;;;;2.65;1.65;;;;;;;;;;5081860;28;20107;-70
2022/04/30 13:01:18;;;;;;;2.53;1.50;;;;;;;;;;5082930;28;20407;-73
2022/04/30 13:03:43;;;;;;;1.55;1.23;;;;;;;;;;5082709;28;20563;-74
2022/04/30 13:06:09;;;;;;;1.77;1.58;;;;;;;;;;5081830;28;20514;-71
2022/04/30 13:14:03;;;;;;;5.18;3.08;;;;;;;;;;5082545;28;20038;-72
2022/04/30 13:16:28;;;;;;;2.28;1.95;;;;;;;;;;5081953;28;20111;-71
2022/04/30 13:18:53;;;;;;;3.55;1.70;;;;;;;;;;5081390;28;20036;-75
2022/04/30 13:21:18;;;;;;;2.08;1.90;;;;;;;;;;5083286;28;20431;-74
2022/04/30 13:23:44;;;;;;;1.98;1.77;;;;;;;;;;5082732;28;20028;-70
2022/04/30 13:26:11;;;;;;;3.25;1.50;;;;;;;;;;5082318;28;20020;-75
2022/04/30 13:28:36;;;;;;;1.48;1.38;;;;;;;;;;5082509;28;20039;-71
2022/04/30 13:31:02;;;;;;;1.83;1.50;;;;;;;;;;5081238;28;20029;-70
2022/04/30 13:33:27;;;;;;;2.65;1.15;;;;;;;;;;5080894;28;20067;-71
2022/04/30 13:35:52;;;;;;;1.95;1.30;;;;;;;;;;5080835;28;20016;-72
2022/04/30 13:38:18;;;;;;;3.05;1.60;;;;;;;;;;5081634;28;20059;-72
2022/04/30 13:40:43;;;;;;;4.70;2.40;;;;;;;;;;5086496;28;20064;-71
2022/04/30 13:43:08;;;;;;;1.30;1.20;;;;;;;;;;5086111;28;21109;-74
2022/04/30 13:45:34;;;;;;;3.28;1.45;;;;;;;;;;5086462;28;20054;-74
2022/04/30 13:47:59;;;;;;;4.03;1.70;;;;;;;;;;5086791;28;20035;-72
2022/04/30 13:50:25;;;;;;;3.05;1.77;;;;;;;;;;5085971;28;20032;-71
2022/04/30 13:52:50;;;;;;;2.50;1.65;;;;;;;;;;5085829;28;20028;-72
2022/04/30 13:55:16;;;;;;;3.40;1.75;;;;;;;;;;5085999;28;20042;-71
2022/04/30 13:57:42;;;;;;;3.40;2.38;;;;;;;;;;5085231;28;20032;-70
2022/04/30 14:00:10;;;;;;;2.15;1.80;;;;;;;;;;5085994;28;20036;-71
2022/04/30 14:02:38;;;;;;;3.00;2.13;;;;;;;;;;5086320;28;20032;-72
2022/04/30 14:05:03;;;;;;;2.95;2.17;;;;;;;;;;5084584;28;20116;-78
2022/04/30 14:07:29;;;;;;;4.63;1.65;;;;;;;;;;5085774;28;20609;-72
2022/04/30 14:09:54;;;;;;;1.85;1.58;;;;;;;;;;5085280;28;20036;-77
2022/04/30 14:12:19;;;;;;;3.10;1.95;;;;;;;;;;5085329;28;20084;-74
2022/04/30 14:14:57;;;;;;;3.58;2.40;;;;;;;;;;5086208;28;20040;-72
2022/04/30 14:20:10;;;;;;;2.58;1.90;;;;;;;;;;5085282;28;20443;-74
2022/04/30 14:22:36;;;;;;;3.00;2.47;;;;;;;;;;5085776;28;20062;-74
2022/04/30 14:25:01;;;;;;;2.55;1.92;;;;;;;;;;5068934;28;20048;-72
2022/04/30 14:27:27;;;;;;;1.55;1.30;;;;;;;;;;5085602;28;20036;-72
2022/04/30 14:29:52;;;;;;;3.90;2.47;;;;;;;;;;5085226;28;20024;-76
2022/04/30 14:32:20;;;;;;;2.50;2.30;;;;;;;;;;5085174;28;20461;-71
2022/04/30 14:34:46;;;;;;;3.58;1.70;;;;;;;;;;5084187;28;20020;-76
2022/04/30 14:37:11;;;;;;;2.15;1.85;;;;;;;;;;5084852;28;20044;-71
2022/04/30 14:39:40;;;;;;;4.32;2.65;;;;;;;;;;5085314;28;20035;-70
2022/04/30 14:42:07;;;;;;;3.87;2.07;;;;;;;;;;5085527;28;20020;-71
2022/04/30 14:44:32;;;;;;;3.75;2.80;;;;;;;;;;5084769;28;20256;-70
2022/04/30 14:46:57;;;;;;;8.45;4.95;;;;;;;;;;5085474;28;20032;-71
2022/04/30 14:49:23;;;;;;;13.35;8.15;;;;;;;;;;5084709;28;20103;-71
2022/04/30 14:51:48;;;;;;;8.00;5.25;;;;;;;;;;5083219;28;20036;-73
2022/04/30 14:54:13;;;;;;;5.13;3.72;;;;;;;;;;5085501;28;20039;-73
2022/04/30 14:56:42;;;;;;;6.28;2.75;;;;;;;;;;5085012;28;20027;-71
2022/04/30 14:59:08;;;;;;;3.72;2.40;;;;;;;;;;5085265;28;20438;-71
2022/04/30 15:01:34;;;;;;;5.22;2.10;;;;;;;;;;5086469;28;20028;-71
2022/04/30 15:03:59;;;;;;;2.70;1.80;;;;;;;;;;5085882;28;20028;-77
2022/04/30 15:06:25;;;;;;;3.05;2.75;;;;;;;;;;5084984;28;20158;-73
2022/04/30 15:08:50;;;;;;;8.13;5.38;;;;;;;;;;5084178;28;20048;-75
2022/04/30 15:11:15;;;;;;;3.80;2.58;;;;;;;;;;5085034;28;20032;-73
2022/04/30 15:13:41;;;;;;;13.68;8.80;;;;;;;;;;5085101;28;20506;-71
2022/04/30 15:16:06;;;;;;;6.10;4.00;;;;;;;;;;5084185;28;20130;-71
2022/04/30 15:18:31;;;;;;;3.53;2.90;;;;;;;;;;5084912;28;20032;-71
2022/04/30 15:20:57;;;;;;;5.47;2.25;;;;;;;;;;5084188;28;20116;-75
2022/04/30 15:23:23;;;;;;;3.30;1.73;;;;;;;;;;5084187;28;20116;-72